sensor_id;sensor_type;location;lat;lon;timestamp;P1;durP1;ratioP1;P2;durP2;ratioP2
74510;SDS011;62991;50.040;18.400;2023-02-12T00:02:18;11.90;;;5.80;;
74510;SDS011;62991;50.040;18.400;2023-02-12T00:05:18;11.77;;;4.30;;
74510;SDS011;62991;50.040;18.400;2023-02-12T00:08:19;13.38;;;5.22;;
74510;SDS011;62991;50.040;18.400;2023-02-12T00:11:21;11.85;;;4.32;;
74510;SDS011;62991;50.040;18.400;2023-02-12T00:14:24;11.65;;;4.30;;
74510;SDS011;62991;50.040;18.400;2023-02-12T00:17:25;10.70;;;5.38;;
74510;SDS011;62991;50.040;18.400;2023-02-12T00:20:26;7.65;;;3.78;;
74510;SDS011;62991;50.040;18.400;2023-02-12T00:23:26;8.90;;;4.63;;
74510;SDS011;62991;50.040;18.400;2023-02-12T00:26:27;11.82;;;4.47;;
74510;SDS011;62991;50.040;18.400;2023-02-12T00:29:28;9.60;;;4.68;;
74510;SDS011;62991;50.040;18.400;2023-02-12T00:32:28;12.80;;;6.20;;
74510;SDS011;62991;50.040;18.400;2023-02-12T00:35:29;11.43;;;5.85;;
74510;SDS011;62991;50.040;18.400;2023-02-12T00:38:30;10.00;;;4.88;;
74510;SDS011;62991;50.040;18.400;2023-02-12T00:41:30;9.45;;;4.43;;
74510;SDS011;62991;50.040;18.400;2023-02-12T00:44:31;12.95;;;4.85;;
74510;SDS011;62991;50.040;18.400;2023-02-12T00:47:32;9.88;;;4.55;;
74510;SDS011;62991;50.040;18.400;2023-02-12T00:50:32;9.30;;;4.18;;
74510;SDS011;62991;50.040;18.400;2023-02-12T00:53:33;14.45;;;5.80;;
74510;SDS011;62991;50.040;18.400;2023-02-12T00:56:35;11.80;;;5.03;;
74510;SDS011;62991;50.040;18.400;2023-02-12T00:59:35;12.57;;;4.72;;
74510;SDS011;62991;50.040;18.400;2023-02-12T01:02:39;11.23;;;5.03;;
74510;SDS011;62991;50.040;18.400;2023-02-12T01:05:39;9.93;;;4.30;;
74510;SDS011;62991;50.040;18.400;2023-02-12T01:08:40;12.57;;;5.50;;
74510;SDS011;62991;50.040;18.400;2023-02-12T01:11:41;11.10;;;5.45;;
74510;SDS011;62991;50.040;18.400;2023-02-12T01:14:42;12.15;;;4.55;;
74510;SDS011;62991;50.040;18.400;2023-02-12T01:17:43;14.55;;;5.15;;
74510;SDS011;62991;50.040;18.400;2023-02-12T01:20:44;10.13;;;4.93;;
74510;SDS011;62991;50.040;18.400;2023-02-12T01:23:45;12.93;;;5.32;;
74510;SDS011;62991;50.040;18.400;2023-02-12T01:26:46;13.55;;;4.95;;
74510;SDS011;62991;50.040;18.400;2023-02-12T01:29:47;14.15;;;5.82;;
74510;SDS011;62991;50.040;18.400;2023-02-12T01:32:48;11.02;;;4.60;;
74510;SDS011;62991;50.040;18.400;2023-02-12T01:35:48;9.95;;;4.43;;
74510;SDS011;62991;50.040;18.400;2023-02-12T01:38:49;11.82;;;5.00;;
74510;SDS011;62991;50.040;18.400;2023-02-12T01:41:50;15.25;;;6.97;;
74510;SDS011;62991;50.040;18.400;2023-02-12T01:48:14;16.35;;;6.55;;
74510;SDS011;62991;50.040;18.400;2023-02-12T01:51:17;14.32;;;4.82;;
74510;SDS011;62991;50.040;18.400;2023-02-12T01:54:20;15.50;;;6.05;;
74510;SDS011;62991;50.040;18.400;2023-02-12T01:57:25;16.60;;;5.93;;
74510;SDS011;62991;50.040;18.400;2023-02-12T02:00:28;10.93;;;4.32;;
74510;SDS011;62991;50.040;18.400;2023-02-12T02:03:29;14.80;;;6.88;;
74510;SDS011;62991;50.040;18.400;2023-02-12T02:06:32;20.45;;;6.63;;
74510;SDS011;62991;50.040;18.400;2023-02-12T02:09:35;18.35;;;6.13;;
74510;SDS011;62991;50.040;18.400;2023-02-12T02:12:38;13.20;;;6.53;;
74510;SDS011;62991;50.040;18.400;2023-02-12T02:15:58;14.63;;;5.40;;
74510;SDS011;62991;50.040;18.400;2023-02-12T02:19:25;13.45;;;6.53;;
74510;SDS011;62991;50.040;18.400;2023-02-12T02:32:28;13.93;;;5.50;;
74510;SDS011;62991;50.040;18.400;2023-02-12T02:35:34;11.85;;;6.15;;
74510;SDS011;62991;50.040;18.400;2023-02-12T02:38:54;15.30;;;7.05;;
74510;SDS011;62991;50.040;18.400;2023-02-12T02:51:26;13.82;;;5.97;;
74510;SDS011;62991;50.040;18.400;2023-02-12T02:54:35;17.92;;;6.35;;
74510;SDS011;62991;50.040;18.400;2023-02-12T02:57:41;15.85;;;7.10;;
74510;SDS011;62991;50.040;18.400;2023-02-12T03:00:46;26.83;;;6.75;;
74510;SDS011;62991;50.040;18.400;2023-02-12T03:04:01;14.40;;;5.95;;
74510;SDS011;62991;50.040;18.400;2023-02-12T03:10:11;13.93;;;6.63;;
74510;SDS011;62991;50.040;18.400;2023-02-12T03:13:27;24.55;;;6.90;;
74510;SDS011;62991;50.040;18.400;2023-02-12T03:16:42;20.67;;;8.40;;
74510;SDS011;62991;50.040;18.400;2023-02-12T03:19:49;16.88;;;7.05;;
74510;SDS011;62991;50.040;18.400;2023-02-12T03:23:01;47.03;;;7.60;;
74510;SDS011;62991;50.040;18.400;2023-02-12T03:26:18;24.85;;;9.25;;
74510;SDS011;62991;50.040;18.400;2023-02-12T03:29:23;15.10;;;7.47;;
74510;SDS011;62991;50.040;18.400;2023-02-12T03:35:31;20.88;;;6.88;;
74510;SDS011;62991;50.040;18.400;2023-02-12T03:38:38;25.83;;;8.45;;
74510;SDS011;62991;50.040;18.400;2023-02-12T03:41:45;21.58;;;7.45;;
74510;SDS011;62991;50.040;18.400;2023-02-12T03:45:08;23.40;;;7.78;;
74510;SDS011;62991;50.040;18.400;2023-02-12T03:48:35;26.25;;;6.95;;
74510;SDS011;62991;50.040;18.400;2023-02-12T03:51:44;32.55;;;8.38;;
74510;SDS011;62991;50.040;18.400;2023-02-12T03:54:44;38.58;;;8.77;;
74510;SDS011;62991;50.040;18.400;2023-02-12T03:57:47;25.13;;;7.60;;
74510;SDS011;62991;50.040;18.400;2023-02-12T04:00:52;30.58;;;6.85;;
74510;SDS011;62991;50.040;18.400;2023-02-12T04:03:53;15.02;;;6.95;;
74510;SDS011;62991;50.040;18.400;2023-02-12T04:06:54;15.38;;;6.15;;
74510;SDS011;62991;50.040;18.400;2023-02-12T04:09:56;21.30;;;8.25;;
74510;SDS011;62991;50.040;18.400;2023-02-12T04:16:21;38.10;;;9.02;;
74510;SDS011;62991;50.040;18.400;2023-02-12T04:23:26;25.40;;;8.25;;
74510;SDS011;62991;50.040;18.400;2023-02-12T04:32:36;21.58;;;8.77;;
74510;SDS011;62991;50.040;18.400;2023-02-12T04:38:54;29.08;;;8.98;;
74510;SDS011;62991;50.040;18.400;2023-02-12T04:41:59;32.20;;;9.15;;
74510;SDS011;62991;50.040;18.400;2023-02-12T04:45:00;23.83;;;9.10;;
74510;SDS011;62991;50.040;18.400;2023-02-12T04:48:02;33.25;;;10.40;;
74510;SDS011;62991;50.040;18.400;2023-02-12T04:51:03;29.35;;;9.93;;
74510;SDS011;62991;50.040;18.400;2023-02-12T04:54:04;26.17;;;9.63;;
74510;SDS011;62991;50.040;18.400;2023-02-12T04:57:05;25.02;;;10.50;;
74510;SDS011;62991;50.040;18.400;2023-02-12T05:00:06;25.40;;;9.77;;
74510;SDS011;62991;50.040;18.400;2023-02-12T05:03:11;21.92;;;8.45;;
74510;SDS011;62991;50.040;18.400;2023-02-12T05:06:11;24.20;;;8.57;;
74510;SDS011;62991;50.040;18.400;2023-02-12T05:09:13;20.65;;;8.18;;
74510;SDS011;62991;50.040;18.400;2023-02-12T05:12:16;22.90;;;8.90;;
74510;SDS011;62991;50.040;18.400;2023-02-12T05:15:16;25.95;;;8.32;;
74510;SDS011;62991;50.040;18.400;2023-02-12T05:18:17;24.40;;;9.60;;
74510;SDS011;62991;50.040;18.400;2023-02-12T05:21:18;19.90;;;8.25;;
74510;SDS011;62991;50.040;18.400;2023-02-12T05:24:18;23.23;;;8.35;;
74510;SDS011;62991;50.040;18.400;2023-02-12T05:27:19;18.88;;;7.50;;
74510;SDS011;62991;50.040;18.400;2023-02-12T05:30:20;13.23;;;6.90;;
74510;SDS011;62991;50.040;18.400;2023-02-12T05:33:20;23.25;;;8.25;;
74510;SDS011;62991;50.040;18.400;2023-02-12T05:36:21;19.45;;;7.43;;
74510;SDS011;62991;50.040;18.400;2023-02-12T05:39:23;23.55;;;7.13;;
74510;SDS011;62991;50.040;18.400;2023-02-12T05:42:24;21.17;;;8.25;;
74510;SDS011;62991;50.040;18.400;2023-02-12T05:45:24;23.38;;;8.85;;
74510;SDS011;62991;50.040;18.400;2023-02-12T05:48:27;17.70;;;7.25;;
74510;SDS011;62991;50.040;18.400;2023-02-12T05:51:28;14.75;;;6.90;;
74510;SDS011;62991;50.040;18.400;2023-02-12T05:54:31;15.25;;;6.72;;
74510;SDS011;62991;50.040;18.400;2023-02-12T05:57:31;21.63;;;7.22;;
74510;SDS011;62991;50.040;18.400;2023-02-12T06:00:32;17.00;;;7.47;;
74510;SDS011;62991;50.040;18.400;2023-02-12T06:03:33;20.77;;;7.10;;
74510;SDS011;62991;50.040;18.400;2023-02-12T06:06:33;18.27;;;7.78;;
74510;SDS011;62991;50.040;18.400;2023-02-12T06:09:34;23.90;;;7.15;;
74510;SDS011;62991;50.040;18.400;2023-02-12T06:12:36;21.92;;;7.72;;
74510;SDS011;62991;50.040;18.400;2023-02-12T06:15:36;14.68;;;7.00;;
74510;SDS011;62991;50.040;18.400;2023-02-12T06:18:37;25.02;;;7.22;;
74510;SDS011;62991;50.040;18.400;2023-02-12T06:21:38;15.75;;;6.68;;
74510;SDS011;62991;50.040;18.400;2023-02-12T06:24:38;18.08;;;7.30;;
74510;SDS011;62991;50.040;18.400;2023-02-12T06:27:39;19.85;;;7.63;;
74510;SDS011;62991;50.040;18.400;2023-02-12T06:30:40;27.02;;;9.77;;
74510;SDS011;62991;50.040;18.400;2023-02-12T06:33:40;23.20;;;8.13;;
74510;SDS011;62991;50.040;18.400;2023-02-12T06:36:41;21.88;;;8.70;;
74510;SDS011;62991;50.040;18.400;2023-02-12T06:39:45;19.60;;;8.90;;
74510;SDS011;62991;50.040;18.400;2023-02-12T06:42:46;22.10;;;10.32;;
74510;SDS011;62991;50.040;18.400;2023-02-12T06:45:46;26.05;;;11.18;;
74510;SDS011;62991;50.040;18.400;2023-02-12T06:48:47;24.20;;;8.93;;
74510;SDS011;62991;50.040;18.400;2023-02-12T06:51:51;19.17;;;7.22;;
74510;SDS011;62991;50.040;18.400;2023-02-12T06:54:52;21.17;;;7.38;;
74510;SDS011;62991;50.040;18.400;2023-02-12T06:57:52;17.58;;;7.63;;
74510;SDS011;62991;50.040;18.400;2023-02-12T07:00:53;24.10;;;8.40;;
74510;SDS011;62991;50.040;18.400;2023-02-12T07:03:57;23.45;;;10.27;;
74510;SDS011;62991;50.040;18.400;2023-02-12T07:06:59;30.58;;;11.75;;
74510;SDS011;62991;50.040;18.400;2023-02-12T07:10:00;34.40;;;12.85;;
74510;SDS011;62991;50.040;18.400;2023-02-12T07:13:01;47.42;;;19.15;;
74510;SDS011;62991;50.040;18.400;2023-02-12T07:16:04;61.55;;;22.83;;
74510;SDS011;62991;50.040;18.400;2023-02-12T07:19:06;55.28;;;17.65;;
74510;SDS011;62991;50.040;18.400;2023-02-12T07:22:07;46.13;;;17.55;;
74510;SDS011;62991;50.040;18.400;2023-02-12T07:25:07;37.60;;;13.40;;
74510;SDS011;62991;50.040;18.400;2023-02-12T07:28:08;34.70;;;15.05;;
74510;SDS011;62991;50.040;18.400;2023-02-12T07:31:10;51.00;;;14.23;;
74510;SDS011;62991;50.040;18.400;2023-02-12T07:34:15;27.80;;;11.63;;
74510;SDS011;62991;50.040;18.400;2023-02-12T07:37:16;33.92;;;12.52;;
74510;SDS011;62991;50.040;18.400;2023-02-12T07:40:21;35.92;;;12.00;;
74510;SDS011;62991;50.040;18.400;2023-02-12T07:43:22;31.55;;;12.20;;
74510;SDS011;62991;50.040;18.400;2023-02-12T07:46:23;26.50;;;9.30;;
74510;SDS011;62991;50.040;18.400;2023-02-12T07:49:28;21.90;;;10.35;;
74510;SDS011;62991;50.040;18.400;2023-02-12T07:52:29;33.72;;;11.70;;
74510;SDS011;62991;50.040;18.400;2023-02-12T07:55:30;20.45;;;10.07;;
74510;SDS011;62991;50.040;18.400;2023-02-12T07:58:30;21.38;;;9.05;;
74510;SDS011;62991;50.040;18.400;2023-02-12T08:01:32;31.75;;;8.88;;
74510;SDS011;62991;50.040;18.400;2023-02-12T08:04:35;27.75;;;10.32;;
74510;SDS011;62991;50.040;18.400;2023-02-12T08:07:36;22.77;;;11.35;;
74510;SDS011;62991;50.040;18.400;2023-02-12T08:10:36;22.67;;;9.75;;
74510;SDS011;62991;50.040;18.400;2023-02-12T08:13:37;26.63;;;9.60;;
74510;SDS011;62991;50.040;18.400;2023-02-12T08:16:39;23.05;;;9.07;;
74510;SDS011;62991;50.040;18.400;2023-02-12T08:19:40;20.02;;;9.15;;
74510;SDS011;62991;50.040;18.400;2023-02-12T08:22:41;32.15;;;10.55;;
74510;SDS011;62991;50.040;18.400;2023-02-12T08:25:42;35.08;;;12.23;;
74510;SDS011;62991;50.040;18.400;2023-02-12T08:28:44;23.48;;;11.35;;
74510;SDS011;62991;50.040;18.400;2023-02-12T08:31:59;34.30;;;12.43;;
74510;SDS011;62991;50.040;18.400;2023-02-12T08:35:01;25.52;;;10.38;;
74510;SDS011;62991;50.040;18.400;2023-02-12T08:38:01;35.33;;;12.00;;
74510;SDS011;62991;50.040;18.400;2023-02-12T08:41:03;28.90;;;11.43;;
74510;SDS011;62991;50.040;18.400;2023-02-12T08:44:09;27.63;;;10.68;;
74510;SDS011;62991;50.040;18.400;2023-02-12T08:47:10;26.38;;;11.20;;
74510;SDS011;62991;50.040;18.400;2023-02-12T08:50:10;22.77;;;9.90;;
74510;SDS011;62991;50.040;18.400;2023-02-12T08:53:11;23.00;;;9.50;;
74510;SDS011;62991;50.040;18.400;2023-02-12T08:56:13;25.67;;;10.95;;
74510;SDS011;62991;50.040;18.400;2023-02-12T08:59:16;21.42;;;9.18;;
74510;SDS011;62991;50.040;18.400;2023-02-12T09:02:16;24.27;;;10.23;;
74510;SDS011;62991;50.040;18.400;2023-02-12T09:05:17;27.10;;;9.88;;
74510;SDS011;62991;50.040;18.400;2023-02-12T09:08:18;24.55;;;10.90;;
74510;SDS011;62991;50.040;18.400;2023-02-12T09:11:20;18.90;;;8.50;;
74510;SDS011;62991;50.040;18.400;2023-02-12T09:14:29;23.40;;;8.43;;
74510;SDS011;62991;50.040;18.400;2023-02-12T09:17:30;26.15;;;8.65;;
74510;SDS011;62991;50.040;18.400;2023-02-12T09:20:31;31.40;;;10.20;;
74510;SDS011;62991;50.040;18.400;2023-02-12T09:23:32;28.23;;;9.50;;
74510;SDS011;62991;50.040;18.400;2023-02-12T09:26:33;19.88;;;8.50;;
74510;SDS011;62991;50.040;18.400;2023-02-12T09:29:34;21.80;;;10.07;;
74510;SDS011;62991;50.040;18.400;2023-02-12T09:32:35;24.35;;;9.43;;
74510;SDS011;62991;50.040;18.400;2023-02-12T09:35:36;25.98;;;10.32;;
74510;SDS011;62991;50.040;18.400;2023-02-12T09:38:37;24.25;;;9.13;;
74510;SDS011;62991;50.040;18.400;2023-02-12T09:41:58;22.55;;;8.77;;
74510;SDS011;62991;50.040;18.400;2023-02-12T09:51:41;26.10;;;9.38;;
74510;SDS011;62991;50.040;18.400;2023-02-12T09:54:47;25.38;;;11.30;;
74510;SDS011;62991;50.040;18.400;2023-02-12T09:57:49;27.42;;;9.35;;
74510;SDS011;62991;50.040;18.400;2023-02-12T10:00:50;22.00;;;8.80;;
74510;SDS011;62991;50.040;18.400;2023-02-12T10:03:51;19.02;;;8.65;;
74510;SDS011;62991;50.040;18.400;2023-02-12T10:06:58;28.38;;;9.45;;
74510;SDS011;62991;50.040;18.400;2023-02-12T10:13:30;31.23;;;11.27;;
74510;SDS011;62991;50.040;18.400;2023-02-12T10:23:30;39.50;;;13.73;;
74510;SDS011;62991;50.040;18.400;2023-02-12T10:26:40;59.50;;;18.88;;
74510;SDS011;62991;50.040;18.400;2023-02-12T10:29:45;43.97;;;14.43;;
74510;SDS011;62991;50.040;18.400;2023-02-12T10:32:49;43.38;;;15.52;;
74510;SDS011;62991;50.040;18.400;2023-02-12T10:35:55;39.60;;;12.57;;
74510;SDS011;62991;50.040;18.400;2023-02-12T10:39:14;25.13;;;9.98;;
74510;SDS011;62991;50.040;18.400;2023-02-12T10:42:17;26.38;;;8.52;;
74510;SDS011;62991;50.040;18.400;2023-02-12T10:45:33;22.30;;;7.85;;
74510;SDS011;62991;50.040;18.400;2023-02-12T10:48:37;23.13;;;8.70;;
74510;SDS011;62991;50.040;18.400;2023-02-12T10:55:31;24.52;;;8.93;;
74510;SDS011;62991;50.040;18.400;2023-02-12T10:58:33;24.90;;;8.68;;
74510;SDS011;62991;50.040;18.400;2023-02-12T11:01:36;19.77;;;7.55;;
74510;SDS011;62991;50.040;18.400;2023-02-12T11:04:37;21.27;;;7.93;;
74510;SDS011;62991;50.040;18.400;2023-02-12T11:07:46;23.80;;;8.32;;
74510;SDS011;62991;50.040;18.400;2023-02-12T11:10:48;31.70;;;10.52;;
74510;SDS011;62991;50.040;18.400;2023-02-12T11:17:22;22.85;;;8.70;;
74510;SDS011;62991;50.040;18.400;2023-02-12T11:20:27;23.25;;;8.85;;
74510;SDS011;62991;50.040;18.400;2023-02-12T11:23:36;19.85;;;8.13;;
74510;SDS011;62991;50.040;18.400;2023-02-12T11:26:42;20.85;;;8.10;;
74510;SDS011;62991;50.040;18.400;2023-02-12T11:29:43;19.45;;;7.85;;
74510;SDS011;62991;50.040;18.400;2023-02-12T11:32:46;17.38;;;7.05;;
74510;SDS011;62991;50.040;18.400;2023-02-12T11:35:52;22.55;;;8.95;;
74510;SDS011;62991;50.040;18.400;2023-02-12T11:38:56;18.33;;;8.48;;
74510;SDS011;62991;50.040;18.400;2023-02-12T11:41:59;25.25;;;8.70;;
74510;SDS011;62991;50.040;18.400;2023-02-12T11:45:05;26.33;;;8.10;;
74510;SDS011;62991;50.040;18.400;2023-02-12T11:48:15;24.13;;;7.32;;
74510;SDS011;62991;50.040;18.400;2023-02-12T11:51:31;29.63;;;8.27;;
74510;SDS011;62991;50.040;18.400;2023-02-12T11:54:38;15.30;;;5.63;;
74510;SDS011;62991;50.040;18.400;2023-02-12T12:04:09;21.13;;;8.18;;
74510;SDS011;62991;50.040;18.400;2023-02-12T12:07:47;16.85;;;6.05;;
74510;SDS011;62991;50.040;18.400;2023-02-12T12:17:53;28.10;;;7.88;;
74510;SDS011;62991;50.040;18.400;2023-02-12T12:21:29;21.77;;;8.20;;
74510;SDS011;62991;50.040;18.400;2023-02-12T12:24:54;42.90;;;13.45;;
74510;SDS011;62991;50.040;18.400;2023-02-12T12:28:03;30.65;;;11.52;;
74510;SDS011;62991;50.040;18.400;2023-02-12T12:31:32;24.23;;;8.02;;
74510;SDS011;62991;50.040;18.400;2023-02-12T12:34:46;22.13;;;9.82;;
74510;SDS011;62991;50.040;18.400;2023-02-12T12:38:49;23.67;;;8.85;;
74510;SDS011;62991;50.040;18.400;2023-02-12T12:45:12;24.30;;;8.82;;
74510;SDS011;62991;50.040;18.400;2023-02-12T12:48:23;19.00;;;7.93;;
74510;SDS011;62991;50.040;18.400;2023-02-12T12:51:55;18.75;;;7.50;;
74510;SDS011;62991;50.040;18.400;2023-02-12T12:58:12;30.55;;;10.77;;
74510;SDS011;62991;50.040;18.400;2023-02-12T13:14:38;20.95;;;8.02;;
74510;SDS011;62991;50.040;18.400;2023-02-12T13:17:53;26.40;;;10.18;;
74510;SDS011;62991;50.040;18.400;2023-02-12T13:21:26;27.15;;;9.52;;
74510;SDS011;62991;50.040;18.400;2023-02-12T13:24:55;22.42;;;8.25;;
74510;SDS011;62991;50.040;18.400;2023-02-12T13:28:03;20.17;;;7.45;;
74510;SDS011;62991;50.040;18.400;2023-02-12T13:31:09;21.13;;;8.60;;
74510;SDS011;62991;50.040;18.400;2023-02-12T13:34:16;16.90;;;7.80;;
74510;SDS011;62991;50.040;18.400;2023-02-12T13:37:18;21.05;;;8.40;;
74510;SDS011;62991;50.040;18.400;2023-02-12T13:40:26;26.40;;;10.70;;
74510;SDS011;62991;50.040;18.400;2023-02-12T13:47:02;16.02;;;7.57;;
74510;SDS011;62991;50.040;18.400;2023-02-12T13:50:40;15.93;;;6.78;;
74510;SDS011;62991;50.040;18.400;2023-02-12T13:57:30;17.13;;;7.57;;
74510;SDS011;62991;50.040;18.400;2023-02-12T14:03:46;15.50;;;7.43;;
74510;SDS011;62991;50.040;18.400;2023-02-12T14:07:01;19.98;;;9.35;;
74510;SDS011;62991;50.040;18.400;2023-02-12T14:10:06;19.23;;;7.45;;
74510;SDS011;62991;50.040;18.400;2023-02-12T14:13:16;17.77;;;6.90;;
74510;SDS011;62991;50.040;18.400;2023-02-12T14:22:59;23.60;;;7.90;;
74510;SDS011;62991;50.040;18.400;2023-02-12T14:29:17;14.23;;;5.97;;
74510;SDS011;62991;50.040;18.400;2023-02-12T14:35:48;14.52;;;6.45;;
74510;SDS011;62991;50.040;18.400;2023-02-12T14:45:45;16.38;;;6.22;;
74510;SDS011;62991;50.040;18.400;2023-02-12T14:48:53;19.33;;;7.28;;
74510;SDS011;62991;50.040;18.400;2023-02-12T14:52:01;21.17;;;7.18;;
74510;SDS011;62991;50.040;18.400;2023-02-12T14:55:19;20.50;;;7.00;;
74510;SDS011;62991;50.040;18.400;2023-02-12T14:58:26;17.20;;;6.07;;
74510;SDS011;62991;50.040;18.400;2023-02-12T15:01:31;25.80;;;8.15;;
74510;SDS011;62991;50.040;18.400;2023-02-12T15:04:34;22.67;;;9.70;;
74510;SDS011;62991;50.040;18.400;2023-02-12T15:07:42;21.95;;;8.70;;
74510;SDS011;62991;50.040;18.400;2023-02-12T15:10:49;24.80;;;8.27;;
74510;SDS011;62991;50.040;18.400;2023-02-12T15:14:15;17.95;;;6.60;;
74510;SDS011;62991;50.040;18.400;2023-02-12T15:17:29;23.50;;;7.53;;
74510;SDS011;62991;50.040;18.400;2023-02-12T15:20:39;23.40;;;7.97;;
74510;SDS011;62991;50.040;18.400;2023-02-12T15:24:07;26.40;;;9.77;;
74510;SDS011;62991;50.040;18.400;2023-02-12T15:27:09;28.77;;;11.93;;
74510;SDS011;62991;50.040;18.400;2023-02-12T15:30:15;32.90;;;11.38;;
74510;SDS011;62991;50.040;18.400;2023-02-12T15:33:20;38.22;;;12.27;;
74510;SDS011;62991;50.040;18.400;2023-02-12T15:36:27;53.30;;;14.43;;
74510;SDS011;62991;50.040;18.400;2023-02-12T15:39:51;96.45;;;22.98;;
74510;SDS011;62991;50.040;18.400;2023-02-12T15:45:56;80.90;;;23.13;;
74510;SDS011;62991;50.040;18.400;2023-02-12T15:48:57;75.05;;;23.30;;
74510;SDS011;62991;50.040;18.400;2023-02-12T15:52:00;50.08;;;16.38;;
74510;SDS011;62991;50.040;18.400;2023-02-12T15:55:24;53.13;;;19.17;;
74510;SDS011;62991;50.040;18.400;2023-02-12T15:58:28;34.88;;;12.90;;
74510;SDS011;62991;50.040;18.400;2023-02-12T16:01:31;41.90;;;14.45;;
74510;SDS011;62991;50.040;18.400;2023-02-12T16:04:34;43.35;;;15.95;;
74510;SDS011;62991;50.040;18.400;2023-02-12T16:07:40;41.38;;;15.35;;
74510;SDS011;62991;50.040;18.400;2023-02-12T16:10:43;36.53;;;13.63;;
74510;SDS011;62991;50.040;18.400;2023-02-12T16:13:46;40.60;;;14.15;;
74510;SDS011;62991;50.040;18.400;2023-02-12T16:16:53;175.50;;;49.63;;
74510;SDS011;62991;50.040;18.400;2023-02-12T16:19:58;124.60;;;40.05;;
74510;SDS011;62991;50.040;18.400;2023-02-12T16:23:19;90.03;;;27.13;;
74510;SDS011;62991;50.040;18.400;2023-02-12T16:26:23;91.70;;;28.05;;
74510;SDS011;62991;50.040;18.400;2023-02-12T16:29:25;117.88;;;38.30;;
74510;SDS011;62991;50.040;18.400;2023-02-12T16:35:36;201.95;;;75.53;;
74510;SDS011;62991;50.040;18.400;2023-02-12T16:38:42;255.57;;;91.10;;
74510;SDS011;62991;50.040;18.400;2023-02-12T16:41:51;246.20;;;72.35;;
74510;SDS011;62991;50.040;18.400;2023-02-12T16:44:55;205.55;;;55.97;;
74510;SDS011;62991;50.040;18.400;2023-02-12T16:47:58;163.27;;;61.08;;
74510;SDS011;62991;50.040;18.400;2023-02-12T16:54:29;170.25;;;69.15;;
74510;SDS011;62991;50.040;18.400;2023-02-12T16:57:30;172.20;;;64.13;;
74510;SDS011;62991;50.040;18.400;2023-02-12T17:00:30;162.65;;;61.83;;
74510;SDS011;62991;50.040;18.400;2023-02-12T17:03:31;162.98;;;55.15;;
74510;SDS011;62991;50.040;18.400;2023-02-12T17:06:33;117.68;;;40.17;;
74510;SDS011;62991;50.040;18.400;2023-02-12T17:09:34;90.28;;;32.50;;
74510;SDS011;62991;50.040;18.400;2023-02-12T17:12:35;73.00;;;24.92;;
74510;SDS011;62991;50.040;18.400;2023-02-12T17:15:45;165.50;;;54.05;;
74510;SDS011;62991;50.040;18.400;2023-02-12T17:18:54;62.83;;;19.88;;
74510;SDS011;62991;50.040;18.400;2023-02-12T17:21:54;47.60;;;18.55;;
74510;SDS011;62991;50.040;18.400;2023-02-12T17:24:56;46.65;;;21.23;;
74510;SDS011;62991;50.040;18.400;2023-02-12T17:27:56;58.90;;;24.00;;
74510;SDS011;62991;50.040;18.400;2023-02-12T17:30:57;76.28;;;28.05;;
74510;SDS011;62991;50.040;18.400;2023-02-12T17:34:01;137.35;;;43.03;;
74510;SDS011;62991;50.040;18.400;2023-02-12T17:37:03;139.25;;;48.13;;
74510;SDS011;62991;50.040;18.400;2023-02-12T17:40:05;85.80;;;33.63;;
74510;SDS011;62991;50.040;18.400;2023-02-12T17:43:07;65.05;;;22.40;;
74510;SDS011;62991;50.040;18.400;2023-02-12T17:46:11;65.03;;;23.55;;
74510;SDS011;62991;50.040;18.400;2023-02-12T17:49:15;76.25;;;27.02;;
74510;SDS011;62991;50.040;18.400;2023-02-12T17:52:16;130.82;;;42.58;;
74510;SDS011;62991;50.040;18.400;2023-02-12T17:55:17;92.03;;;31.40;;
74510;SDS011;62991;50.040;18.400;2023-02-12T17:58:17;113.45;;;44.30;;
74510;SDS011;62991;50.040;18.400;2023-02-12T18:01:19;285.15;;;92.57;;
74510;SDS011;62991;50.040;18.400;2023-02-12T18:04:21;201.02;;;74.20;;
74510;SDS011;62991;50.040;18.400;2023-02-12T18:07:22;326.58;;;119.55;;
74510;SDS011;62991;50.040;18.400;2023-02-12T18:10:22;477.77;;;194.23;;
74510;SDS011;62991;50.040;18.400;2023-02-12T18:13:23;310.33;;;115.13;;
74510;SDS011;62991;50.040;18.400;2023-02-12T18:16:25;282.25;;;100.85;;
74510;SDS011;62991;50.040;18.400;2023-02-12T18:19:29;312.33;;;116.95;;
74510;SDS011;62991;50.040;18.400;2023-02-12T18:22:31;268.08;;;93.55;;
74510;SDS011;62991;50.040;18.400;2023-02-12T18:25:33;231.68;;;86.97;;
74510;SDS011;62991;50.040;18.400;2023-02-12T18:28:38;189.50;;;71.22;;
74510;SDS011;62991;50.040;18.400;2023-02-12T18:31:39;207.15;;;75.28;;
74510;SDS011;62991;50.040;18.400;2023-02-12T18:34:41;193.15;;;75.65;;
74510;SDS011;62991;50.040;18.400;2023-02-12T18:37:42;176.75;;;67.25;;
74510;SDS011;62991;50.040;18.400;2023-02-12T18:40:43;123.75;;;41.90;;
74510;SDS011;62991;50.040;18.400;2023-02-12T18:43:44;91.82;;;35.28;;
74510;SDS011;62991;50.040;18.400;2023-02-12T18:46:45;65.07;;;26.48;;
74510;SDS011;62991;50.040;18.400;2023-02-12T18:49:46;56.83;;;25.15;;
74510;SDS011;62991;50.040;18.400;2023-02-12T18:52:46;109.95;;;41.28;;
74510;SDS011;62991;50.040;18.400;2023-02-12T18:55:47;283.35;;;107.75;;
74510;SDS011;62991;50.040;18.400;2023-02-12T18:58:52;321.55;;;122.05;;
74510;SDS011;62991;50.040;18.400;2023-02-12T19:01:57;270.20;;;111.63;;
74510;SDS011;62991;50.040;18.400;2023-02-12T19:04:58;361.77;;;136.63;;
74510;SDS011;62991;50.040;18.400;2023-02-12T19:07:58;285.50;;;110.30;;
74510;SDS011;62991;50.040;18.400;2023-02-12T19:10:59;185.82;;;71.57;;
74510;SDS011;62991;50.040;18.400;2023-02-12T19:14:00;184.30;;;74.20;;
74510;SDS011;62991;50.040;18.400;2023-02-12T19:17:00;190.68;;;79.10;;
74510;SDS011;62991;50.040;18.400;2023-02-12T19:20:01;164.45;;;61.15;;
74510;SDS011;62991;50.040;18.400;2023-02-12T19:23:02;157.95;;;60.90;;
74510;SDS011;62991;50.040;18.400;2023-02-12T19:26:10;143.00;;;57.92;;
74510;SDS011;62991;50.040;18.400;2023-02-12T19:29:14;143.40;;;59.53;;
74510;SDS011;62991;50.040;18.400;2023-02-12T19:32:14;114.85;;;44.72;;
74510;SDS011;62991;50.040;18.400;2023-02-12T19:35:15;152.73;;;52.92;;
74510;SDS011;62991;50.040;18.400;2023-02-12T19:38:17;313.75;;;112.38;;
74510;SDS011;62991;50.040;18.400;2023-02-12T19:41:21;272.73;;;93.22;;
74510;SDS011;62991;50.040;18.400;2023-02-12T19:44:24;297.40;;;112.68;;
74510;SDS011;62991;50.040;18.400;2023-02-12T19:47:24;226.65;;;86.50;;
74510;SDS011;62991;50.040;18.400;2023-02-12T19:50:25;193.43;;;68.03;;
74510;SDS011;62991;50.040;18.400;2023-02-12T19:53:26;170.65;;;60.03;;
74510;SDS011;62991;50.040;18.400;2023-02-12T19:56:27;140.73;;;45.00;;
74510;SDS011;62991;50.040;18.400;2023-02-12T19:59:29;116.82;;;40.45;;
74510;SDS011;62991;50.040;18.400;2023-02-12T20:02:29;174.55;;;60.40;;
74510;SDS011;62991;50.040;18.400;2023-02-12T20:05:30;158.20;;;52.92;;
74510;SDS011;62991;50.040;18.400;2023-02-12T20:08:32;143.55;;;49.38;;
74510;SDS011;62991;50.040;18.400;2023-02-12T20:11:33;176.75;;;62.28;;
74510;SDS011;62991;50.040;18.400;2023-02-12T20:14:38;110.57;;;39.42;;